Time;durP1;ratioP1;P1;durP2;ratioP2;P2;SDS_P1;SDS_P2;PMS_P1;PMS_P2;Temp;Humidity;BMP_temperature;BMP_pressure;BME280_temperature;BME280_humidity;BME280_pressure;Samples;Min_cycle;Max_cycle;Signal;HPM_P1;HPM_P2
2024/01/25 00:01:29;;;;;;;7.70;4.77;;;23.40;1.00;;;;;;2603219;39;20955;-83
2024/01/25 00:03:54;;;;;;;5.93;5.33;;;23.40;1.00;;;;;;2603892;54;20159;-80
2024/01/25 00:06:21;;;;;;;6.27;4.40;;;23.40;1.00;;;;;;2603503;54;20192;-81
2024/01/25 00:08:46;;;;;;;6.00;4.60;;;23.30;1.00;;;;;;2606153;31;20691;-82
2024/01/25 00:11:12;;;;;;;9.27;5.40;;;23.30;1.00;;;;;;2604037;54;20431;-83
2024/01/25 00:13:38;;;;;;;7.87;5.17;;;23.30;1.00;;;;;;2605324;54;20438;-80
2024/01/25 00:16:04;;;;;;;9.97;5.30;;;23.30;1.00;;;;;;2604230;54;20197;-81
2024/01/25 00:18:30;;;;;;;7.20;4.90;;;23.30;1.00;;;;;;2604789;54;21017;-82
2024/01/25 00:20:56;;;;;;;6.05;5.00;;;23.30;1.00;;;;;;2605340;54;20438;-84
2024/01/25 00:23:21;;;;;;;5.90;4.07;;;23.30;1.00;;;;;;2607064;54;20175;-82
2024/01/25 00:25:47;;;;;;;9.67;5.37;;;23.30;1.00;;;;;;2605693;54;20155;-80
2024/01/25 00:28:13;;;;;;;7.73;4.93;;;23.20;1.00;;;;;;2605906;54;20164;-81
2024/01/25 00:30:39;;;;;;;6.70;4.47;;;23.20;1.00;;;;;;2606159;54;20155;-79
2024/01/25 00:33:05;;;;;;;8.67;4.90;;;23.20;1.00;;;;;;2605761;54;20693;-79
2024/01/25 00:35:31;;;;;;;7.73;4.07;;;23.20;1.00;;;;;;2605958;54;20438;-82
2024/01/25 00:37:57;;;;;;;4.10;3.27;;;23.20;1.00;;;;;;2605902;54;20170;-81
2024/01/25 00:40:23;;;;;;;6.70;4.97;;;23.10;1.00;;;;;;2604395;39;20909;-80
2024/01/25 00:42:53;;;;;;;6.00;4.40;;;23.10;1.00;;;;;;2603789;54;20446;-81
2024/01/25 00:45:19;;;;;;;6.47;3.73;;;23.10;1.00;;;;;;2604123;54;20427;-81
2024/01/25 00:47:45;;;;;;;8.03;5.00;;;23.10;1.00;;;;;;2605990;39;20852;-81
2024/01/25 00:50:12;;;;;;;7.93;4.43;;;23.10;1.00;;;;;;2606028;54;20490;-80
2024/01/25 00:52:38;;;;;;;6.87;3.83;;;23.10;1.00;;;;;;2605611;54;20451;-79
2024/01/25 00:55:04;;;;;;;7.40;4.47;;;23.00;1.00;;;;;;2605159;39;20886;-70
2024/01/25 00:57:30;;;;;;;7.50;4.40;;;23.10;1.00;;;;;;2605695;54;20646;-71
2024/01/25 00:59:56;;;;;;;8.17;4.63;;;23.00;1.00;;;;;;2604572;54;20534;-71
2024/01/25 01:02:22;;;;;;;7.67;4.13;;;23.00;1.00;;;;;;2605209;54;20471;-71
2024/01/25 01:04:48;;;;;;;8.67;5.20;;;23.00;1.00;;;;;;2605025;54;20444;-71
2024/01/25 01:07:15;;;;;;;9.47;4.90;;;23.00;1.00;;;;;;2604860;54;20407;-70
2024/01/25 01:09:40;;;;;;;7.80;4.13;;;23.00;1.00;;;;;;2606633;54;20416;-71
2024/01/25 01:12:07;;;;;;;7.93;4.77;;;23.00;1.00;;;;;;2606217;54;20431;-70
2024/01/25 01:14:33;;;;;;;8.47;3.90;;;22.90;1.00;;;;;;2606167;39;20700;-70
2024/01/25 01:16:58;;;;;;;6.57;4.03;;;22.90;1.00;;;;;;2605038;54;20423;-70
2024/01/25 01:19:24;;;;;;;6.87;3.83;;;22.90;1.00;;;;;;2603577;54;20174;-70
2024/01/25 01:21:50;;;;;;;6.83;4.83;;;22.90;1.00;;;;;;2603125;47;20174;-70
2024/01/25 01:24:15;;;;;;;10.73;4.97;;;22.90;1.00;;;;;;2603897;54;20194;-69
2024/01/25 01:26:44;;;;;;;8.83;4.73;;;22.90;1.00;;;;;;2603925;54;20183;-71
2024/01/25 01:29:10;;;;;;;6.10;4.17;;;22.90;1.00;;;;;;2604600;51;20177;-71
2024/01/25 01:31:35;;;;;;;7.53;4.90;;;22.90;1.00;;;;;;2603589;54;20427;-71
2024/01/25 01:34:01;;;;;;;10.03;5.10;;;22.90;1.00;;;;;;2603471;54;20216;-71
2024/01/25 01:36:27;;;;;;;5.53;3.80;;;22.90;1.00;;;;;;2602418;54;20690;-70
2024/01/25 01:38:52;;;;;;;6.73;4.23;;;22.90;1.00;;;;;;2602964;39;20499;-71
2024/01/25 01:41:18;;;;;;;8.27;4.70;;;22.90;1.00;;;;;;2602772;54;20178;-71
2024/01/25 01:43:44;;;;;;;7.17;4.13;;;22.90;1.00;;;;;;2602652;54;20203;-71
2024/01/25 01:46:37;;;;;;;9.90;4.37;;;22.90;1.00;;;;;;2602323;54;20181;-71
2024/01/25 01:49:04;;;;;;;7.40;5.00;;;22.80;1.00;;;;;;2602685;54;20163;-71
2024/01/25 01:51:31;;;;;;;7.70;4.40;;;22.80;1.00;;;;;;2602400;51;20435;-71
2024/01/25 01:53:57;;;;;;;5.90;4.03;;;22.80;1.00;;;;;;2603690;54;20435;-65
2024/01/25 01:56:26;;;;;;;6.40;3.60;;;22.80;1.00;;;;;;2602021;54;20439;-66
2024/01/25 01:58:53;;;;;;;6.10;3.60;;;22.80;1.00;;;;;;2601859;54;20562;-66
2024/01/25 02:01:20;;;;;;;6.23;4.40;;;22.70;1.00;;;;;;2600935;52;20523;-65
2024/01/25 02:03:45;;;;;;;6.13;4.03;;;22.70;1.00;;;;;;2601436;47;20433;-66
2024/01/25 02:06:11;;;;;;;8.10;4.33;;;22.70;1.00;;;;;;2601022;54;20442;-66
2024/01/25 02:08:37;;;;;;;6.57;3.90;;;22.70;1.00;;;;;;2600737;54;20193;-67
2024/01/25 02:11:03;;;;;;;5.80;4.03;;;22.80;1.00;;;;;;2602309;54;20159;-67
2024/01/25 02:13:28;;;;;;;6.80;4.87;;;22.70;1.00;;;;;;2601672;54;20269;-67
2024/01/25 02:15:54;;;;;;;5.03;3.70;;;22.70;1.00;;;;;;2600815;54;20443;-66
2024/01/25 02:18:20;;;;;;;5.70;3.67;;;22.70;1.00;;;;;;2603708;54;20176;-65
2024/01/25 02:20:45;;;;;;;5.83;3.50;;;22.60;1.00;;;;;;2603475;54;20182;-66
2024/01/25 02:23:11;;;;;;;8.87;4.37;;;22.70;1.00;;;;;;2602398;54;20158;-66
2024/01/25 02:25:36;;;;;;;12.43;4.90;;;22.60;1.00;;;;;;2603637;54;20196;-66
2024/01/25 02:28:02;;;;;;;7.97;4.30;;;22.70;1.00;;;;;;2604427;54;20676;-66
2024/01/25 02:30:28;;;;;;;6.20;4.03;;;22.60;1.00;;;;;;2604586;54;20174;-66
2024/01/25 02:32:53;;;;;;;7.47;4.40;;;22.60;1.00;;;;;;2605770;54;20581;-66
2024/01/25 02:35:20;;;;;;;8.63;4.50;;;22.60;1.00;;;;;;2604084;54;20173;-66
2024/01/25 02:37:46;;;;;;;5.30;3.50;;;22.60;1.00;;;;;;2603719;47;20696;-66
2024/01/25 02:40:12;;;;;;;6.17;4.93;;;22.60;1.00;;;;;;2603459;54;20434;-66
2024/01/25 02:42:38;;;;;;;4.67;3.10;;;22.60;1.00;;;;;;2603910;54;20174;-66
2024/01/25 02:45:03;;;;;;;7.37;4.10;;;22.60;1.00;;;;;;2603134;39;20483;-66
2024/01/25 02:47:29;;;;;;;4.40;3.17;;;22.60;1.00;;;;;;2602917;54;20178;-66
2024/01/25 02:49:55;;;;;;;5.77;3.97;;;22.50;1.00;;;;;;2602580;54;21228;-66
2024/01/25 02:52:21;;;;;;;7.03;4.17;;;22.50;1.00;;;;;;2602811;54;20182;-65
2024/01/25 02:54:46;;;;;;;6.70;4.17;;;22.50;1.00;;;;;;2602188;39;20501;-66
2024/01/25 02:57:12;;;;;;;6.83;3.90;;;22.60;1.00;;;;;;2602882;39;20438;-66
2024/01/25 02:59:38;;;;;;;6.67;4.20;;;22.60;1.00;;;;;;2602503;54;20213;-65
2024/01/25 03:02:03;;;;;;;5.33;3.40;;;22.60;1.00;;;;;;2603082;54;20193;-67
2024/01/25 03:04:29;;;;;;;7.20;4.50;;;22.60;1.00;;;;;;2602469;54;20159;-79
2024/01/25 03:06:54;;;;;;;5.73;4.07;;;22.50;1.00;;;;;;2603983;39;20656;-80
2024/01/25 03:09:21;;;;;;;5.67;3.30;;;22.50;1.00;;;;;;2605840;54;20166;-80
2024/01/25 03:11:47;;;;;;;6.53;3.60;;;22.50;1.00;;;;;;2605434;39;21029;-81
2024/01/25 03:14:12;;;;;;;5.67;3.87;;;22.50;1.00;;;;;;2605865;54;20464;-69
2024/01/25 03:16:38;;;;;;;6.20;3.80;;;22.50;1.00;;;;;;2604125;54;20164;-69
2024/01/25 03:19:03;;;;;;;7.07;3.73;;;22.50;1.00;;;;;;2602994;54;20738;-69
2024/01/25 03:21:29;;;;;;;5.40;3.60;;;22.50;1.00;;;;;;2603233;54;20163;-69
2024/01/25 03:23:55;;;;;;;5.23;3.30;;;22.50;1.00;;;;;;2602279;54;20213;-69
2024/01/25 03:26:20;;;;;;;4.73;3.10;;;22.50;1.00;;;;;;2602824;54;20167;-69
2024/01/25 03:28:46;;;;;;;5.57;4.13;;;22.50;1.00;;;;;;2602692;54;20162;-69
2024/01/25 03:31:12;;;;;;;7.20;4.13;;;22.50;1.00;;;;;;2602362;54;20173;-69
2024/01/25 03:33:37;;;;;;;5.20;3.40;;;22.50;1.00;;;;;;2602586;54;20209;-69
2024/01/25 03:36:04;;;;;;;5.33;3.90;;;22.50;1.00;;;;;;2602390;54;20285;-69
2024/01/25 03:38:30;;;;;;;6.67;4.10;;;22.50;1.00;;;;;;2602994;54;20173;-69
2024/01/25 03:40:58;;;;;;;8.57;4.30;;;22.50;1.00;;;;;;2603852;54;20489;-68
2024/01/25 03:43:25;;;;;;;5.73;3.77;;;22.50;1.00;;;;;;2602555;54;20168;-69
2024/01/25 03:45:51;;;;;;;6.30;4.30;;;22.40;1.00;;;;;;2603449;54;20449;-69
2024/01/25 03:48:17;;;;;;;7.27;3.67;;;22.40;1.00;;;;;;2603099;54;20470;-69
2024/01/25 03:50:43;;;;;;;5.90;3.30;;;22.40;1.00;;;;;;2603099;39;20898;-69
2024/01/25 03:53:08;;;;;;;4.23;3.03;;;22.40;1.00;;;;;;2602956;54;20261;-69
2024/01/25 03:55:34;;;;;;;6.30;3.27;;;22.40;1.00;;;;;;2602770;54;20174;-70
2024/01/25 03:58:00;;;;;;;5.57;3.27;;;22.40;1.00;;;;;;2602275;39;20856;-69
2024/01/25 04:00:25;;;;;;;7.47;4.00;;;22.40;1.00;;;;;;2602808;47;20196;-69
2024/01/25 04:02:51;;;;;;;5.90;4.27;;;22.40;1.00;;;;;;2602418;54;20191;-69
2024/01/25 04:05:17;;;;;;;4.70;3.33;;;22.40;1.00;;;;;;2601727;54;21505;-69
2024/01/25 04:07:43;;;;;;;6.47;3.10;;;22.40;1.00;;;;;;2602841;54;20187;-69
2024/01/25 04:10:08;;;;;;;6.17;3.83;;;22.40;1.00;;;;;;2603096;54;20170;-69
2024/01/25 04:12:34;;;;;;;6.90;3.60;;;22.40;1.00;;;;;;2604040;47;20193;-69
2024/01/25 04:15:00;;;;;;;6.57;3.17;;;22.40;1.00;;;;;;2604344;54;20165;-70
2024/01/25 04:17:26;;;;;;;5.27;2.90;;;22.40;1.00;;;;;;2603562;54;20424;-70
2024/01/25 04:19:52;;;;;;;4.77;3.30;;;22.40;1.00;;;;;;2604725;39;20739;-70
2024/01/25 04:22:17;;;;;;;4.93;3.23;;;22.40;1.00;;;;;;2604400;54;20161;-69
2024/01/25 04:24:43;;;;;;;5.93;3.03;;;22.40;1.00;;;;;;2605066;54;21220;-80
2024/01/25 04:27:10;;;;;;;5.80;3.90;;;22.40;1.00;;;;;;2604031;54;20174;-79
2024/01/25 04:29:43;;;;;;;9.47;3.90;;;22.30;1.00;;;;;;2605285;54;20962;-81
2024/01/25 04:32:08;;;;;;;8.53;3.60;;;22.30;1.00;;;;;;2605198;54;20423;-80
2024/01/25 04:34:35;;;;;;;8.87;3.70;;;22.40;1.00;;;;;;2604798;54;20423;-80
2024/01/25 04:37:01;;;;;;;7.43;3.17;;;22.40;1.00;;;;;;2604569;54;20193;-80
2024/01/25 04:39:27;;;;;;;5.87;3.43;;;22.30;1.00;;;;;;2605584;54;20546;-78
2024/01/25 04:41:53;;;;;;;4.77;3.40;;;22.30;1.00;;;;;;2604235;54;20428;-81
2024/01/25 04:44:19;;;;;;;5.93;2.73;;;22.30;1.00;;;;;;2604758;54;20309;-81
2024/01/25 04:46:44;;;;;;;5.80;3.70;;;22.30;1.00;;;;;;2607105;54;20274;-80
2024/01/25 04:49:10;;;;;;;6.43;3.80;;;22.30;1.00;;;;;;2607434;39;20606;-81
2024/01/25 04:51:36;;;;;;;3.97;3.23;;;22.30;1.00;;;;;;2605883;54;20177;-78
2024/01/25 04:54:02;;;;;;;6.93;3.43;;;22.30;1.00;;;;;;2605306;54;20166;-80
2024/01/25 04:56:28;;;;;;;5.70;3.10;;;22.30;1.00;;;;;;2605216;54;20424;-79
2024/01/25 04:58:54;;;;;;;8.13;3.30;;;22.30;1.00;;;;;;2605713;54;20185;-79
2024/01/25 05:01:20;;;;;;;6.10;3.47;;;22.30;1.00;;;;;;2604256;54;20450;-82
2024/01/25 05:03:45;;;;;;;5.27;2.70;;;22.30;1.00;;;;;;2604484;47;20173;-80
2024/01/25 05:06:11;;;;;;;4.40;3.10;;;22.30;1.00;;;;;;2604644;54;20745;-79
2024/01/25 05:08:37;;;;;;;5.40;3.60;;;22.30;1.00;;;;;;2603428;54;20147;-78
2024/01/25 05:11:02;;;;;;;5.53;3.07;;;22.20;1.00;;;;;;2606137;54;20191;-78
2024/01/25 05:13:28;;;;;;;7.70;3.33;;;22.20;1.00;;;;;;2604957;54;20171;-78
2024/01/25 05:15:54;;;;;;;6.23;2.60;;;22.20;1.00;;;;;;2605407;39;21093;-79
2024/01/25 05:18:20;;;;;;;7.97;3.30;;;22.20;1.00;;;;;;2605697;54;20445;-78
2024/01/25 05:20:45;;;;;;;6.93;2.43;;;22.20;1.00;;;;;;2604723;54;20159;-79
2024/01/25 05:23:11;;;;;;;5.23;2.80;;;22.20;1.00;;;;;;2604136;47;20173;-80
2024/01/25 05:25:37;;;;;;;6.40;3.00;;;22.20;1.00;;;;;;2603215;47;20174;-69
2024/01/25 05:28:03;;;;;;;6.50;3.10;;;22.20;1.00;;;;;;2602244;54;20166;-68
2024/01/25 05:30:29;;;;;;;7.10;2.80;;;22.20;1.00;;;;;;2603460;47;20706;-69
2024/01/25 05:32:55;;;;;;;7.20;3.37;;;22.20;1.00;;;;;;2603136;39;21183;-68
2024/01/25 05:35:21;;;;;;;5.00;2.50;;;22.20;1.00;;;;;;2602683;54;20436;-69
2024/01/25 05:37:46;;;;;;;5.80;3.00;;;22.20;1.00;;;;;;2604032;54;20278;-68
2024/01/25 05:40:12;;;;;;;3.83;2.20;;;22.20;1.00;;;;;;2603534;54;20160;-67
2024/01/25 05:42:39;;;;;;;7.27;2.87;;;22.20;1.00;;;;;;2604934;54;20159;-68
2024/01/25 05:45:05;;;;;;;3.53;2.77;;;22.20;1.00;;;;;;2604950;54;20593;-69
2024/01/25 05:47:31;;;;;;;8.90;3.40;;;22.20;1.00;;;;;;2604440;54;20523;-68
2024/01/25 05:49:57;;;;;;;5.27;2.80;;;22.20;1.00;;;;;;2605421;39;20809;-68
2024/01/25 05:52:23;;;;;;;4.33;2.60;;;22.20;1.00;;;;;;2604392;54;20754;-69
2024/01/25 05:54:50;;;;;;;5.00;2.83;;;22.20;1.00;;;;;;2603815;47;20213;-69
2024/01/25 05:57:16;;;;;;;6.93;3.27;;;22.20;1.00;;;;;;2603598;54;20535;-69
2024/01/25 05:59:42;;;;;;;6.23;3.73;;;22.10;1.00;;;;;;2604497;54;20427;-69
2024/01/25 06:02:08;;;;;;;5.47;3.00;;;22.10;1.00;;;;;;2603101;54;20466;-69
2024/01/25 06:04:35;;;;;;;8.70;2.73;;;22.10;1.00;;;;;;2603475;54;20236;-69
2024/01/25 06:07:00;;;;;;;5.30;2.80;;;22.10;1.00;;;;;;2603108;54;20427;-68
2024/01/25 06:09:26;;;;;;;5.90;2.60;;;22.20;1.00;;;;;;2603856;54;20462;-68
2024/01/25 06:11:52;;;;;;;6.27;2.67;;;22.10;1.00;;;;;;2605620;39;20556;-69
2024/01/25 06:14:18;;;;;;;6.40;2.87;;;22.10;1.00;;;;;;2604318;54;20171;-68
2024/01/25 06:16:44;;;;;;;5.40;2.50;;;22.10;1.00;;;;;;2605034;54;21534;-68
2024/01/25 06:19:10;;;;;;;4.03;2.43;;;22.10;1.00;;;;;;2604750;47;20415;-68
2024/01/25 06:21:37;;;;;;;9.97;2.90;;;22.10;1.00;;;;;;2605056;47;20431;-69
2024/01/25 06:24:04;;;;;;;3.50;2.63;;;22.10;1.00;;;;;;2604665;54;20435;-69
2024/01/25 06:26:30;;;;;;;7.03;2.93;;;22.10;1.00;;;;;;2604191;47;20429;-69
2024/01/25 06:28:56;;;;;;;5.50;2.30;;;22.10;1.00;;;;;;2605472;54;20427;-69
2024/01/25 06:31:25;;;;;;;3.93;2.77;;;22.10;1.00;;;;;;2604721;54;20439;-68
2024/01/25 06:33:52;;;;;;;6.57;3.10;;;22.10;1.00;;;;;;2604623;54;20508;-67
2024/01/25 06:36:21;;;;;;;4.20;2.40;;;22.10;1.00;;;;;;2605023;54;20427;-68
2024/01/25 06:38:47;;;;;;;3.90;2.17;;;22.10;1.00;;;;;;2604450;54;21582;-66
2024/01/25 06:41:13;;;;;;;4.87;2.17;;;22.10;1.00;;;;;;2604509;54;21426;-68
2024/01/25 06:43:40;;;;;;;3.70;2.07;;;22.10;1.00;;;;;;2603260;39;20518;-70
2024/01/25 06:46:06;;;;;;;4.37;2.40;;;22.10;1.00;;;;;;2601791;54;20523;-72
2024/01/25 06:48:32;;;;;;;5.23;2.97;;;22.10;1.00;;;;;;2605309;54;20469;-73
2024/01/25 06:50:58;;;;;;;4.93;2.00;;;22.10;1.00;;;;;;2604164;54;21023;-67
2024/01/25 06:53:24;;;;;;;4.73;2.60;;;22.50;1.00;;;;;;2601991;54;20484;-62
2024/01/25 06:55:50;;;;;;;4.03;2.23;;;22.90;1.00;;;;;;2603261;47;20166;-62
2024/01/25 06:58:15;;;;;;;5.00;2.80;;;23.20;1.00;;;;;;2602826;54;20182;-64
2024/01/25 07:00:42;;;;;;;5.73;2.67;;;23.40;1.00;;;;;;2603692;54;20182;-66
2024/01/25 07:03:08;;;;;;;5.80;2.70;;;23.50;1.00;;;;;;2603209;54;20237;-70
2024/01/25 07:05:35;;;;;;;7.67;3.87;;;23.50;1.00;;;;;;2603658;54;20430;-63
2024/01/25 07:08:01;;;;;;;8.40;2.73;;;23.50;1.00;;;;;;2604723;47;20486;-68
2024/01/25 07:10:27;;;;;;;6.20;2.70;;;23.40;1.00;;;;;;2684598;36;20454;-66
2024/01/25 07:12:53;;;;;;;4.37;2.53;;;23.10;1.00;;;;;;2601286;54;20513;-67
2024/01/25 07:15:19;;;;;;;5.80;2.67;;;22.90;1.00;;;;;;2602508;54;20442;-67
2024/01/25 07:17:45;;;;;;;7.57;2.57;;;22.80;1.00;;;;;;2602160;39;21099;-68
2024/01/25 07:20:12;;;;;;;7.60;3.03;;;22.70;1.00;;;;;;2602958;47;20466;-67
2024/01/25 07:22:39;;;;;;;8.27;3.47;;;22.70;1.00;;;;;;2603524;54;20446;-70
2024/01/25 07:25:05;;;;;;;4.20;2.87;;;22.60;1.00;;;;;;2603656;54;20983;-67
2024/01/25 07:27:31;;;;;;;6.17;3.17;;;22.60;1.00;;;;;;2602776;47;20449;-67
2024/01/25 07:29:57;;;;;;;6.90;3.23;;;22.50;1.00;;;;;;2604876;54;20429;-67
2024/01/25 07:32:24;;;;;;;6.13;2.87;;;22.50;1.00;;;;;;2606147;54;20257;-67
2024/01/25 07:34:50;;;;;;;4.70;3.03;;;22.50;1.00;;;;;;2605717;54;20176;-67
2024/01/25 07:37:18;;;;;;;6.30;2.93;;;22.50;1.00;;;;;;2604142;39;21033;-66
2024/01/25 07:39:44;;;;;;;5.40;2.60;;;22.50;1.00;;;;;;2603794;54;20420;-67
2024/01/25 07:42:11;;;;;;;11.43;4.57;;;22.50;1.00;;;;;;2605381;31;21197;-69
2024/01/25 07:44:37;;;;;;;12.47;4.57;;;22.60;1.00;;;;;;2604032;54;20435;-68
2024/01/25 07:47:02;;;;;;;13.50;4.40;;;22.60;1.00;;;;;;2604705;54;20439;-67
2024/01/25 07:49:29;;;;;;;18.90;4.27;;;22.50;1.00;;;;;;2604380;39;20676;-67
2024/01/25 07:51:56;;;;;;;13.60;4.03;;;22.60;1.00;;;;;;2605421;39;20791;-67
2024/01/25 07:54:22;;;;;;;15.10;3.73;;;22.60;1.00;;;;;;2603936;54;20443;-70
2024/01/25 07:56:48;;;;;;;9.13;3.40;;;22.50;1.00;;;;;;2604445;54;20579;-73
2024/01/25 07:59:14;;;;;;;10.40;3.60;;;22.50;1.00;;;;;;2603866;39;21188;-71
2024/01/25 08:01:40;;;;;;;21.47;5.07;;;22.60;1.00;;;;;;2604291;54;20466;-71
2024/01/25 08:04:05;;;;;;;14.80;3.60;;;22.60;1.00;;;;;;2604244;54;20282;-70
2024/01/25 08:06:31;;;;;;;15.47;4.60;;;22.60;1.00;;;;;;2604751;54;20167;-71
2024/01/25 08:08:57;;;;;;;7.10;3.30;;;22.60;1.00;;;;;;2604962;39;20536;-71
2024/01/25 08:11:24;;;;;;;13.00;3.53;;;22.60;1.00;;;;;;2604868;54;20426;-71
2024/01/25 08:13:49;;;;;;;7.33;3.47;;;22.60;1.00;;;;;;2604655;54;20438;-70
2024/01/25 08:16:24;;;;;;;21.83;3.93;;;22.60;1.00;;;;;;2602553;54;20455;-70
2024/01/25 08:18:50;;;;;;;20.53;4.90;;;22.60;1.00;;;;;;2602029;54;20174;-71
2024/01/25 08:21:16;;;;;;;8.83;3.10;;;22.60;1.00;;;;;;2601991;54;20432;-71
2024/01/25 08:23:42;;;;;;;10.73;3.60;;;22.60;1.00;;;;;;2603539;54;20202;-71
2024/01/25 08:26:09;;;;;;;13.03;3.90;;;22.60;1.00;;;;;;2602670;54;20186;-71
2024/01/25 08:28:36;;;;;;;8.33;4.33;;;22.60;1.00;;;;;;2603837;54;21433;-71
2024/01/25 08:31:02;;;;;;;12.10;4.60;;;22.60;1.00;;;;;;2603223;54;20435;-72
2024/01/25 08:33:28;;;;;;;8.00;3.63;;;22.60;1.00;;;;;;2603186;54;21015;-72
2024/01/25 08:35:53;;;;;;;11.17;3.97;;;22.60;1.00;;;;;;2602868;54;20435;-71
2024/01/25 08:38:19;;;;;;;7.53;2.90;;;22.60;1.00;;;;;;2604190;54;21033;-70
2024/01/25 08:40:44;;;;;;;7.73;3.07;;;22.60;1.00;;;;;;2602861;54;21072;-72
2024/01/25 08:43:10;;;;;;;10.33;3.37;;;22.60;1.00;;;;;;2604537;51;20179;-72
2024/01/25 08:45:37;;;;;;;6.43;3.07;;;22.70;1.00;;;;;;2603571;47;20173;-70
2024/01/25 08:48:03;;;;;;;10.13;3.47;;;22.70;1.00;;;;;;2602103;54;20155;-72
2024/01/25 08:50:29;;;;;;;6.70;4.00;;;22.70;1.00;;;;;;2603527;54;20433;-73
2024/01/25 08:52:55;;;;;;;9.87;3.67;;;22.70;1.00;;;;;;2603443;54;20434;-73
2024/01/25 08:55:21;;;;;;;10.07;3.70;;;22.70;1.00;;;;;;2603109;54;20155;-68
2024/01/25 08:57:47;;;;;;;10.47;3.50;;;22.70;1.00;;;;;;2602354;39;20584;-68
2024/01/25 09:00:14;;;;;;;8.97;3.57;;;22.70;1.00;;;;;;2602447;39;20574;-68
2024/01/25 09:02:39;;;;;;;6.80;3.43;;;22.70;1.00;;;;;;2603821;47;21759;-69
2024/01/25 09:05:06;;;;;;;11.73;4.17;;;22.70;1.00;;;;;;2603575;54;21247;-68
2024/01/25 09:07:31;;;;;;;8.50;4.17;;;22.80;1.00;;;;;;2602149;54;20183;-68
2024/01/25 09:09:57;;;;;;;13.30;4.07;;;22.80;1.00;;;;;;2602810;54;20439;-67
2024/01/25 09:12:23;;;;;;;9.00;3.40;;;22.90;1.00;;;;;;2603422;54;20892;-68
2024/01/25 09:14:49;;;;;;;5.57;3.10;;;22.90;1.00;;;;;;2602804;54;20522;-68
2024/01/25 09:17:16;;;;;;;10.30;3.97;;;23.00;1.00;;;;;;2603318;51;20174;-68
2024/01/25 09:19:41;;;;;;;7.23;3.73;;;23.10;1.00;;;;;;2602194;39;20598;-68
2024/01/25 09:22:09;;;;;;;4.30;3.40;;;23.10;1.00;;;;;;2603266;47;20434;-68
2024/01/25 09:24:36;;;;;;;15.80;4.73;;;23.20;1.00;;;;;;2603177;54;20166;-68
2024/01/25 09:27:02;;;;;;;4.93;2.80;;;23.20;1.00;;;;;;2603172;54;20453;-67
2024/01/25 09:29:28;;;;;;;9.43;3.77;;;23.20;1.00;;;;;;2603415;54;20490;-67
2024/01/25 09:31:54;;;;;;;7.80;4.20;;;23.20;1.00;;;;;;2603649;54;21428;-68
2024/01/25 09:34:21;;;;;;;7.80;3.90;;;23.20;1.00;;;;;;2603256;54;20174;-68
2024/01/25 09:36:47;;;;;;;6.77;3.23;;;23.20;1.00;;;;;;2603657;54;20754;-68
2024/01/25 09:39:14;;;;;;;5.00;3.17;;;23.30;1.00;;;;;;2603093;54;20574;-68
2024/01/25 09:41:40;;;;;;;7.17;3.00;;;23.30;1.00;;;;;;2603174;54;20459;-67
2024/01/25 09:44:09;;;;;;;9.83;3.90;;;23.40;1.00;;;;;;2602905;47;20446;-68
2024/01/25 09:46:35;;;;;;;7.60;3.93;;;23.40;1.00;;;;;;2602254;54;20445;-68
2024/01/25 09:49:02;;;;;;;6.07;3.57;;;23.60;1.00;;;;;;2602768;54;20434;-68
2024/01/25 09:51:34;;;;;;;6.00;3.80;;;23.80;1.00;;;;;;2603294;54;20435;-67
2024/01/25 09:54:01;;;;;;;5.97;3.53;;;24.10;1.00;;;;;;2603228;54;20426;-68
2024/01/25 09:56:30;;;;;;;4.83;3.60;;;24.30;1.00;;;;;;2604539;54;20525;-68
2024/01/25 09:58:57;;;;;;;6.73;3.40;;;24.50;1.00;;;;;;2603228;54;20545;-68
2024/01/25 10:01:22;;;;;;;8.10;3.63;;;24.50;1.00;;;;;;2603220;54;20508;-68
2024/01/25 10:03:48;;;;;;;7.40;3.80;;;24.40;1.00;;;;;;2603420;54;20423;-67
2024/01/25 10:06:15;;;;;;;9.27;5.00;;;24.20;1.00;;;;;;2603470;47;20266;-67
2024/01/25 10:08:42;;;;;;;7.13;4.00;;;24.10;1.00;;;;;;2604012;54;20159;-67
2024/01/25 10:11:08;;;;;;;8.83;4.20;;;24.00;1.00;;;;;;2603267;54;20995;-67
2024/01/25 10:13:44;;;;;;;4.70;3.50;;;23.80;1.00;;;;;;2604770;54;20423;-67
2024/01/25 10:16:17;;;;;;;5.60;3.60;;;23.80;1.00;;;;;;2604460;54;20527;-66
2024/01/25 10:18:45;;;;;;;5.70;3.43;;;23.90;1.00;;;;;;2602146;54;20428;-67
2024/01/25 10:21:11;;;;;;;6.03;3.70;;;24.20;1.00;;;;;;2604391;54;20442;-67
2024/01/25 10:23:40;;;;;;;5.70;3.73;;;24.30;1.00;;;;;;2602550;39;20763;-66
2024/01/25 10:26:08;;;;;;;4.67;3.50;;;24.40;1.00;;;;;;2601673;54;20462;-68
2024/01/25 10:28:34;;;;;;;7.67;4.33;;;24.50;1.00;;;;;;2603355;54;20431;-68
2024/01/25 10:31:02;;;;;;;7.93;4.20;;;24.40;1.00;;;;;;2601487;54;20477;-66
2024/01/25 10:33:28;;;;;;;6.50;4.07;;;24.30;1.00;;;;;;2602508;47;20181;-67
2024/01/25 10:36:04;;;;;;;7.63;3.83;;;24.10;1.00;;;;;;2603249;54;20477;-67
2024/01/25 10:38:31;;;;;;;6.57;4.30;;;24.00;1.00;;;;;;2603054;39;20860;-66
2024/01/25 10:41:01;;;;;;;7.50;3.97;;;23.80;1.00;;;;;;2602887;54;20435;-66
2024/01/25 10:43:27;;;;;;;4.97;4.00;;;23.70;1.00;;;;;;2603600;54;20428;-67
2024/01/25 10:45:55;;;;;;;6.90;4.63;;;23.50;1.00;;;;;;2603123;54;20459;-67
2024/01/25 10:48:21;;;;;;;6.87;4.20;;;23.40;1.00;;;;;;2603103;54;21780;-67
2024/01/25 10:50:48;;;;;;;9.13;5.30;;;23.40;1.00;;;;;;2602211;54;20408;-67
2024/01/25 10:53:16;;;;;;;7.57;4.80;;;23.50;1.00;;;;;;2601734;54;20991;-67
2024/01/25 10:55:42;;;;;;;9.83;4.77;;;24.10;1.00;;;;;;2603964;54;20438;-68
2024/01/25 10:58:10;;;;;;;7.57;4.33;;;24.40;1.00;;;;;;2602500;54;20431;-67
2024/01/25 11:00:36;;;;;;;7.37;4.70;;;24.70;1.00;;;;;;2603009;54;20428;-67
2024/01/25 11:03:04;;;;;;;5.90;4.30;;;24.90;1.00;;;;;;2602439;54;20456;-68
2024/01/25 11:05:30;;;;;;;8.23;4.50;;;24.80;1.00;;;;;;2602652;54;20164;-67
2024/01/25 11:07:56;;;;;;;7.63;4.73;;;24.60;1.00;;;;;;2603176;54;20420;-67
2024/01/25 11:10:25;;;;;;;7.60;5.17;;;24.30;1.00;;;;;;2603865;54;20949;-67
2024/01/25 11:12:59;;;;;;;7.90;4.80;;;24.10;1.00;;;;;;2603988;39;21016;-67
2024/01/25 11:15:35;;;;;;;6.60;4.03;;;23.90;1.00;;;;;;2603725;54;20408;-72
2024/01/25 11:18:03;;;;;;;7.03;4.50;;;23.80;1.00;;;;;;2602112;54;20416;-72
2024/01/25 11:20:29;;;;;;;8.10;4.67;;;23.70;1.00;;;;;;2603838;54;20415;-72
2024/01/25 11:23:06;;;;;;;8.80;4.63;;;23.70;1.00;;;;;;2603331;51;20425;-72
2024/01/25 11:25:35;;;;;;;8.70;5.07;;;23.70;1.00;;;;;;2604375;54;20540;-63
2024/01/25 11:28:02;;;;;;;7.67;4.97;;;23.70;1.00;;;;;;2603867;39;20864;-63
2024/01/25 11:30:30;;;;;;;8.90;3.90;;;23.70;1.00;;;;;;2603630;54;20431;-64
2024/01/25 11:32:56;;;;;;;6.70;4.23;;;23.70;1.00;;;;;;2603162;54;20512;-62
2024/01/25 11:35:22;;;;;;;6.23;4.13;;;23.70;1.00;;;;;;2602611;54;20411;-64
2024/01/25 11:37:49;;;;;;;5.30;3.63;;;23.70;1.00;;;;;;2603196;54;20440;-64
2024/01/25 11:40:16;;;;;;;7.27;5.43;;;23.70;1.00;;;;;;2602868;54;20480;-62
2024/01/25 11:42:43;;;;;;;8.93;4.90;;;23.70;1.00;;;;;;2603850;54;21427;-64
2024/01/25 11:45:11;;;;;;;5.90;3.90;;;23.60;1.00;;;;;;2603279;54;20455;-63
2024/01/25 11:47:38;;;;;;;7.77;4.97;;;23.60;1.00;;;;;;2603604;54;20471;-62
2024/01/25 11:50:09;;;;;;;5.10;4.07;;;23.50;1.00;;;;;;2601297;54;21098;-62
2024/01/25 11:52:35;;;;;;;5.40;4.10;;;23.50;1.00;;;;;;2603452;54;20457;-63
2024/01/25 11:55:06;;;;;;;8.10;4.67;;;23.50;1.00;;;;;;2601805;54;20428;-63
2024/01/25 11:57:35;;;;;;;6.40;4.03;;;23.50;1.00;;;;;;2601709;54;20428;-63
2024/01/25 12:00:02;;;;;;;5.73;4.77;;;23.40;1.00;;;;;;2602531;54;20483;-63
2024/01/25 12:02:28;;;;;;;7.57;3.93;;;23.40;1.00;;;;;;2601500;54;20461;-63
2024/01/25 12:04:56;;;;;;;8.43;4.50;;;23.30;1.00;;;;;;2601812;54;20453;-63
2024/01/25 12:07:22;;;;;;;6.63;4.23;;;23.30;1.00;;;;;;2600210;54;21617;-62
2024/01/25 12:10:06;;;;;;;7.20;4.30;;;23.20;1.00;;;;;;2602160;54;20490;-62
2024/01/25 12:12:32;;;;;;;6.97;4.67;;;23.20;1.00;;;;;;2602107;54;20158;-63
2024/01/25 12:14:59;;;;;;;6.97;4.33;;;23.10;1.00;;;;;;2602369;39;21219;-65
2024/01/25 12:17:28;;;;;;;5.40;3.90;;;23.10;1.00;;;;;;2602316;54;21154;-63
2024/01/25 12:19:58;;;;;;;7.23;3.53;;;23.00;1.00;;;;;;2602395;54;20427;-63
2024/01/25 12:22:27;;;;;;;8.40;4.47;;;23.00;1.00;;;;;;2602303;54;20578;-63
2024/01/25 12:24:59;;;;;;;7.70;4.63;;;23.00;1.00;;;;;;2602286;39;20932;-68
2024/01/25 12:27:26;;;;;;;8.90;4.00;;;23.00;1.00;;;;;;2602167;54;20462;-68
2024/01/25 12:29:56;;;;;;;6.90;4.90;;;22.90;1.00;;;;;;2602800;47;20424;-68
2024/01/25 12:32:22;;;;;;;6.10;4.00;;;22.90;1.00;;;;;;2602082;39;21103;-66
2024/01/25 12:34:58;;;;;;;5.50;3.93;;;22.90;1.00;;;;;;2602511;54;20434;-64
2024/01/25 12:37:24;;;;;;;7.47;4.37;;;22.90;1.00;;;;;;2601410;54;20439;-63
2024/01/25 12:39:54;;;;;;;5.00;3.60;;;22.90;1.00;;;;;;2603202;47;20433;-63
2024/01/25 12:42:20;;;;;;;6.40;3.90;;;22.90;1.00;;;;;;2603237;39;20855;-63
2024/01/25 12:44:46;;;;;;;6.60;3.60;;;22.90;1.00;;;;;;2602675;54;20444;-63
2024/01/25 12:47:15;;;;;;;4.20;3.73;;;22.90;1.00;;;;;;2602291;54;20431;-64
2024/01/25 12:49:41;;;;;;;4.90;4.13;;;22.90;1.00;;;;;;2605645;47;20434;-63
2024/01/25 12:52:14;;;;;;;8.37;4.60;;;22.90;1.00;;;;;;2603444;54;20433;-64